• Join FlightAware (Why Join?)
  • Login
  • US Flag 
09:28PM EDT


 

Airport Tracker/Info


-or-


 

Live Flight TrackerFlight Track Log ✈ SWA3497 ✈ 13-May-2013 ✈ KMDW - KSDF

Flight Track Log - Related Links

Times and Time Zones

All times are in EDT time to prevent confusion due to time zone crossing. See the SWA3497 flight status page for this flight to view local times or setup timezone preferences in your user account.

Time Position Orientation Groundspeed Altitude Reporting Facility
EDT Latitude Longitude Course Direction KTS MPH feet Rate Location/Type
12:30PM 41.8000 -87.7833 217° Southwest 156 180 1,900  Level Chicago TRACON
12:31PM 41.7500 -87.8333 217° Southwest 203 234 3,100 1,260 Climbing Chicago TRACON
12:33PM 41.6461 -87.8086 170° South 238 274 6,000 1,920 Climbing Chicago Center
12:34PM 41.5692 -87.7764 163° South 284 327 9,300 3,480 Climbing Chicago Center
12:35PM 41.4600 -87.7403 166° South 332 382 13,200 3,480 Climbing Chicago Center
12:36PM 41.3547 -87.7147 170° South 375 432 16,500 3,000 Climbing Chicago Center
12:37PM 41.2428 -87.6853 169° South 399 459 19,500 3,000 Climbing Chicago Center
12:38PM 41.1272 -87.6553 169° South 415 478 22,800 1,680 Climbing Chicago Center
12:39PM 41.0111 -87.6256 169° South 422 486 23,000 60 Climbing Chicago Center
12:40PM 40.8944 -87.5953 169° South 427 491 23,000  Level Chicago Center
12:41PM 40.7792 -87.5658 169° South 424 488 23,000  Level Chicago Center
12:42PM 40.6417 -87.5308 169° South 421 484 23,000  Level Chicago Center
12:43PM 40.5300 -87.4853 163° South 430 495 23,000  Level Chicago Center
12:44PM 40.4331 -87.4181 152° Southeast 424 488 23,000  Level Chicago Center
12:45PM 40.3269 -87.3483 153° Southeast 426 490 23,000  Level Chicago Center
12:46PM 40.2003 -87.2661 154° Southeast 427 491 23,000  Level Chicago Center
12:47PM 40.1139 -87.2089 153° Southeast 428 493 23,000  Level Indianapolis Center
12:48PM 39.9867 -87.1269 154° Southeast 428 493 23,000  Level Indianapolis Center
12:49PM 39.8817 -87.0572 153° Southeast 427 491 23,000  Level Indianapolis Center
12:50PM 39.7761 -86.9883 153° Southeast 427 491 23,000  Level Indianapolis Center
12:52PM 39.6714 -86.9192 153° Southeast 426 490 23,000  Level Indianapolis Center
12:53PM 39.5667 -86.8500 153° Southeast 427 491 23,000  Level Indianapolis Center
12:54PM 39.4608 -86.7817 153° Southeast 429 494 23,000  Level Indianapolis Center
12:55PM 39.3333 -86.6994 153° Southeast 431 496 23,000 -540 Level Indianapolis Center
12:56PM 39.2278 -86.6308 153° Southeast 429 494 21,900 -1,860 Descending Indianapolis Center
12:57PM 39.1203 -86.5614 153° Southeast 433 498 19,200 -2,340 Descending Indianapolis Center
12:58PM 39.0133 -86.4931 154° Southeast 433 498 17,200 -2,100 Descending Indianapolis Center
12:59PM 38.9078 -86.4250 153° Southeast 430 495 14,900 -2,400 Descending Indianapolis Center
01:00PM 38.7986 -86.3556 154° Southeast 411 473 12,400 -2,040 Descending Indianapolis Center
01:01PM 38.7011 -86.2886 152° Southeast 397 457 10,800 -1,260 Descending Indianapolis Center
01:02PM 38.6319 -86.2033 136° Southeast 354 407 9,800 -1,020 Descending Indianapolis Center
01:03PM 38.5647 -86.1275 139° Southeast 329 379 8,700 -1,080 Descending Indianapolis Center
01:04PM 38.4853 -86.0831 156° South 309 356 7,700 -1,080 Descending Indianapolis Center
01:05PM 38.3953 -86.0317 156° South 297 342 6,600 -600 Descending Indianapolis Center
01:07PM 38.2592 -85.9381 152° Southeast 276 318 6,000 -240 Descending Indianapolis Center
01:08PM 38.1961 -85.8819 145° Southeast 275 316 6,000 -60 Level Indianapolis Center
01:09PM 38.1311 -85.8389 152° Southeast 271 312 5,900 -600 Descending Indianapolis Center
01:10PM 38.0658 -85.8197 167° South 252 290 4,800 -1,260 Descending Indianapolis Center
01:11PM 38.0044 -85.7844 156° South 251 289 3,400 -840 Descending Indianapolis Center
01:12PM 37.9894 -85.7083 104° East 246 283 3,200 -600 Descending Indianapolis Center
01:14PM 38.1167 -85.7000 North 145 167 1,700 -780 Descending Louisville TRACON